createdAt,value
2023-04-21T00:01:22.367Z,17.43
2023-04-21T00:03:50.775Z,20.60
2023-04-21T00:06:22.659Z,19.90
2023-04-21T00:08:50.746Z,19.03
2023-04-21T00:11:18.162Z,17.47
2023-04-21T00:13:45.283Z,19.80
2023-04-21T00:16:12.361Z,21.30
2023-04-21T00:18:39.062Z,20.80
2023-04-21T00:21:06.205Z,20.83
2023-04-21T00:23:32.964Z,21.27
2023-04-21T00:26:02.607Z,21.10
2023-04-21T00:28:29.586Z,19.97
2023-04-21T00:30:57.596Z,21.80
2023-04-21T00:33:25.797Z,19.70
2023-04-21T00:35:54.418Z,20.70
2023-04-21T00:38:21.073Z,20.73
2023-04-21T00:40:47.774Z,21.60
2023-04-21T00:43:14.395Z,20.33
2023-04-21T00:45:41.036Z,20.27
2023-04-21T00:48:07.762Z,20.97
2023-04-21T00:50:34.596Z,22.23
2023-04-21T00:53:01.339Z,21.53
2023-04-21T00:55:29.000Z,22.77
2023-04-21T00:57:56.701Z,22.53
2023-04-21T01:00:27.884Z,21.23
2023-04-21T01:02:55.470Z,21.93
2023-04-21T01:05:23.616Z,21.23
2023-04-21T01:07:50.514Z,22.57
2023-04-21T01:10:17.185Z,23.03
2023-04-21T01:12:46.892Z,23.27
2023-04-21T01:15:15.684Z,22.97
2023-04-21T01:17:42.886Z,19.03
2023-04-21T01:20:13.288Z,22.80
2023-04-21T01:22:47.836Z,22.33
2023-04-21T01:25:15.032Z,25.07
2023-04-21T01:27:41.821Z,20.67
2023-04-21T01:30:09.916Z,21.93
2023-04-21T01:32:37.077Z,21.60
2023-04-21T01:35:07.103Z,22.57
2023-04-21T01:37:34.635Z,22.57
2023-04-21T01:40:07.106Z,22.30
2023-04-21T01:42:36.285Z,23.07
2023-04-21T01:45:03.748Z,24.03
2023-04-21T01:47:31.546Z,25.07
2023-04-21T01:49:58.307Z,22.77
2023-04-21T01:52:25.154Z,25.40
2023-04-21T01:54:54.467Z,24.37
2023-04-21T01:57:21.439Z,24.50
2023-04-21T01:59:49.555Z,22.27
2023-04-21T02:02:16.342Z,22.40
2023-04-21T02:04:42.997Z,26.10
2023-04-21T02:07:09.773Z,24.87
2023-04-21T02:09:36.653Z,21.47
2023-04-21T02:12:03.751Z,23.37
2023-04-21T02:14:30.488Z,20.83
2023-04-21T02:16:57.160Z,22.00
2023-04-21T02:19:24.335Z,22.23
2023-04-21T02:21:51.073Z,25.23
2023-04-21T02:24:17.851Z,22.80
2023-04-21T02:26:45.721Z,21.80
2023-04-21T02:29:12.500Z,21.53
2023-04-21T02:31:53.849Z,23.37
2023-04-21T02:34:24.367Z,22.90
2023-04-21T02:36:50.987Z,24.63
2023-04-21T02:39:19.467Z,24.83
2023-04-21T02:41:46.319Z,24.03
2023-04-21T02:44:12.931Z,24.47
2023-04-21T02:46:43.073Z,24.37
2023-04-21T02:49:10.731Z,23.83
2023-04-21T02:51:37.711Z,27.27
2023-04-21T02:54:05.395Z,24.60
2023-04-21T02:56:34.505Z,22.70
2023-04-21T02:59:01.176Z,22.00
2023-04-21T03:01:27.821Z,27.67
2023-04-21T03:03:54.613Z,25.40
2023-04-21T03:06:21.316Z,24.33
2023-04-21T03:08:49.380Z,25.03
2023-04-21T03:11:16.144Z,25.10
2023-04-21T03:13:42.818Z,25.63
2023-04-21T03:16:09.865Z,25.07
2023-04-21T03:18:36.720Z,26.27
2023-04-21T03:21:03.564Z,25.70
2023-04-21T03:23:30.507Z,25.60
2023-04-21T03:25:57.219Z,25.23
2023-04-21T03:28:23.957Z,25.47
2023-04-21T03:30:51.765Z,25.17
2023-04-21T03:33:18.382Z,27.70
2023-04-21T03:35:45.051Z,27.30
2023-04-21T03:38:11.785Z,27.53
2023-04-21T03:40:38.428Z,27.67
2023-04-21T03:43:05.124Z,27.67
2023-04-21T03:45:35.687Z,27.53
2023-04-21T03:48:02.681Z,28.07
2023-04-21T03:50:29.839Z,31.03
2023-04-21T03:52:56.522Z,32.20
2023-04-21T03:55:23.170Z,29.73
2023-04-21T03:57:49.803Z,26.70
2023-04-21T04:00:19.353Z,26.27
2023-04-21T04:02:46.177Z,25.33
2023-04-21T04:05:13.081Z,25.13
2023-04-21T04:07:42.594Z,25.63
2023-04-21T04:10:09.259Z,24.93
2023-04-21T04:12:38.205Z,24.97
2023-04-21T04:15:05.359Z,29.80
2023-04-21T04:17:32.089Z,27.63
2023-04-21T04:19:58.704Z,26.93
2023-04-21T04:22:25.530Z,27.30
2023-04-21T04:24:53.168Z,24.10
2023-04-21T04:27:21.381Z,23.40
2023-04-21T04:29:49.259Z,22.13
2023-04-21T04:32:16.279Z,21.93
2023-04-21T04:34:43.075Z,22.47
2023-04-21T04:37:11.048Z,23.20
2023-04-21T04:39:37.678Z,23.13
2023-04-21T04:42:08.946Z,22.17
2023-04-21T04:44:36.288Z,21.23
2023-04-21T04:47:04.025Z,22.30
2023-04-21T04:49:30.671Z,23.10
2023-04-21T04:51:57.329Z,22.57
2023-04-21T04:54:25.112Z,23.33
2023-04-21T04:56:51.704Z,22.67
2023-04-21T04:59:18.446Z,25.07
2023-04-21T05:01:45.144Z,23.33
2023-04-21T05:04:16.325Z,22.57
2023-04-21T05:06:43.299Z,22.50
2023-04-21T05:09:10.285Z,22.57
2023-04-21T05:11:36.983Z,22.10
2023-04-21T05:14:03.782Z,20.73
2023-04-21T05:16:30.491Z,22.60
2023-04-21T05:19:01.316Z,19.83
2023-04-21T05:21:28.757Z,18.47
2023-04-21T05:23:56.519Z,21.77
2023-04-21T05:26:24.488Z,21.70
2023-04-21T05:28:51.169Z,20.03
2023-04-21T05:31:17.888Z,18.47
2023-04-21T05:33:44.536Z,19.43
2023-04-21T05:36:11.824Z,17.63
2023-04-21T05:38:38.761Z,17.40
2023-04-21T05:41:05.811Z,17.90
2023-04-21T05:43:33.436Z,17.53
2023-04-21T05:46:08.331Z,16.20
2023-04-21T05:48:35.373Z,15.60
2023-04-21T05:51:13.759Z,18.20
2023-04-21T05:53:41.109Z,15.50
2023-04-21T05:56:11.733Z,16.90
2023-04-21T05:58:39.049Z,16.23
2023-04-21T06:01:09.269Z,15.73
2023-04-21T06:03:36.121Z,15.23
2023-04-21T06:06:05.304Z,15.30
2023-04-21T06:08:32.192Z,15.20
2023-04-21T06:10:58.854Z,15.03
2023-04-21T06:13:27.437Z,14.43
2023-04-21T06:15:54.923Z,15.00
2023-04-21T06:18:22.140Z,14.60
2023-04-21T06:20:53.105Z,13.70
2023-04-21T06:23:20.520Z,13.50
2023-04-21T06:25:47.743Z,12.03
2023-04-21T06:28:14.425Z,12.80
2023-04-21T06:30:41.053Z,12.60
2023-04-21T06:33:07.858Z,12.60
2023-04-21T06:35:35.768Z,12.67
2023-04-21T06:38:02.562Z,12.80
2023-04-21T06:40:29.323Z,12.00
2023-04-21T06:42:55.982Z,13.00
2023-04-21T06:45:23.080Z,13.40
2023-04-21T06:47:49.730Z,13.73
2023-04-21T06:50:16.464Z,12.23
2023-04-21T06:52:43.090Z,12.43
2023-04-21T06:55:09.798Z,12.30
2023-04-21T06:57:36.505Z,11.77
2023-04-21T07:00:05.647Z,11.03
2023-04-21T07:02:32.647Z,12.03
2023-04-21T07:04:59.287Z,10.57
2023-04-21T07:07:25.884Z,11.30
2023-04-21T07:09:52.565Z,11.30
2023-04-21T07:12:19.234Z,11.03
2023-04-21T07:14:45.964Z,11.50
2023-04-21T07:17:12.953Z,10.50
2023-04-21T07:19:40.073Z,11.03
2023-04-21T07:22:06.705Z,12.70
2023-04-21T07:24:35.438Z,13.97
2023-04-21T07:27:04.993Z,10.47
2023-04-21T07:29:31.857Z,10.57
2023-04-21T07:31:58.785Z,10.37
2023-04-21T07:34:25.650Z,10.30
2023-04-21T07:36:52.360Z,9.30
2023-04-21T07:39:19.255Z,9.83
2023-04-21T07:41:46.199Z,10.50
2023-04-21T07:44:12.836Z,10.20
2023-04-21T07:46:39.620Z,8.30
2023-04-21T07:49:06.494Z,8.90
2023-04-21T07:51:33.102Z,9.57
2023-04-21T07:53:59.873Z,8.67
2023-04-21T07:56:26.812Z,9.07
2023-04-21T07:58:53.459Z,9.33
2023-04-21T08:01:20.988Z,9.53
2023-04-21T08:03:49.003Z,9.13
2023-04-21T08:06:15.950Z,9.10
2023-04-21T08:08:44.143Z,9.20
2023-04-21T08:11:32.642Z,7.83
2023-04-21T08:14:00.497Z,8.17
2023-04-21T08:16:32.420Z,7.70
2023-04-21T08:18:59.224Z,7.60
2023-04-21T08:21:25.927Z,7.50
2023-04-21T08:23:52.906Z,7.07
2023-04-21T08:26:21.652Z,7.70
2023-04-21T08:28:51.903Z,6.43
2023-04-21T08:31:19.395Z,7.57
2023-04-21T08:33:57.911Z,8.23
2023-04-21T08:36:29.539Z,7.43
2023-04-21T08:38:57.228Z,8.63
2023-04-21T08:41:24.862Z,9.93
2023-04-21T08:43:51.715Z,6.75
2023-04-21T08:46:18.950Z,8.15
2023-04-21T08:48:47.153Z,6.32
2023-04-21T08:51:20.943Z,6.85
2023-04-21T08:53:47.881Z,7.40
2023-04-21T08:56:14.889Z,7.15
2023-04-21T08:58:42.049Z,6.40
2023-04-21T09:01:09.063Z,6.25
2023-04-21T09:03:36.141Z,5.57
2023-04-21T09:06:05.497Z,6.25
2023-04-21T09:08:33.602Z,5.22
2023-04-21T09:11:01.691Z,6.18
2023-04-21T09:13:36.188Z,5.93
2023-04-21T09:16:16.959Z,7.30
2023-04-21T09:18:44.467Z,5.97
2023-04-21T09:21:15.174Z,7.10
2023-04-21T09:23:49.393Z,6.65
2023-04-21T09:26:18.000Z,7.35
2023-04-21T09:28:46.854Z,6.90
2023-04-21T09:31:21.444Z,9.00
2023-04-21T09:36:22.115Z,6.25
2023-04-21T09:39:15.405Z,5.63
2023-04-21T09:41:43.264Z,4.80
2023-04-21T09:44:09.890Z,6.00
2023-04-21T09:46:37.262Z,6.97
2023-04-21T09:49:05.399Z,5.63
2023-04-21T09:51:56.227Z,6.00
2023-04-21T09:56:54.044Z,7.82
2023-04-21T09:59:26.036Z,6.00
2023-04-21T10:01:55.558Z,5.50
2023-04-21T10:04:24.014Z,5.78
2023-04-21T10:06:51.752Z,5.47
2023-04-21T10:09:22.573Z,5.32
2023-04-21T10:11:49.504Z,5.40
2023-04-21T10:14:16.185Z,4.90
2023-04-21T10:16:43.290Z,4.10
2023-04-21T10:19:27.762Z,5.60
2023-04-21T10:22:00.075Z,4.55
2023-04-21T10:24:30.521Z,4.63
2023-04-21T10:27:02.137Z,4.85
2023-04-21T10:29:40.039Z,4.63
2023-04-21T10:32:11.186Z,4.50
2023-04-21T10:34:38.698Z,4.05
2023-04-21T10:37:05.460Z,4.22
2023-04-21T10:39:35.955Z,4.32
2023-04-21T10:42:20.914Z,4.05
2023-04-21T10:45:02.519Z,4.53
2023-04-21T10:47:46.434Z,3.40
2023-04-21T10:50:17.964Z,6.28
2023-04-21T10:52:47.092Z,3.65
2023-04-21T10:55:16.956Z,3.22
2023-04-21T10:57:45.504Z,2.60
2023-04-21T11:00:16.327Z,2.50
2023-04-21T11:02:44.970Z,2.13
2023-04-21T11:05:12.400Z,2.10
2023-04-21T11:07:39.189Z,1.95
2023-04-21T11:10:11.073Z,2.25
2023-04-21T11:12:39.349Z,2.80
2023-04-21T11:15:11.886Z,2.13
2023-04-21T11:17:43.810Z,3.05
2023-04-21T11:20:10.835Z,2.20
2023-04-21T11:22:38.373Z,1.35
2023-04-21T11:25:05.648Z,2.13
2023-04-21T11:27:32.339Z,1.50
2023-04-21T11:29:59.066Z,1.95
2023-04-21T11:32:25.832Z,1.90
2023-04-21T11:34:52.623Z,2.42
2023-04-21T11:37:29.905Z,2.20
2023-04-21T11:40:00.952Z,1.77
2023-04-21T11:42:28.225Z,2.45
2023-04-21T11:44:56.504Z,2.03
2023-04-21T11:47:27.970Z,1.80
2023-04-21T11:49:56.858Z,2.53
2023-04-21T11:52:36.018Z,1.75
2023-04-21T11:55:05.628Z,2.63
2023-04-21T11:57:33.525Z,2.40
2023-04-21T12:00:02.095Z,2.77
2023-04-21T12:02:33.132Z,2.90
2023-04-21T12:05:10.026Z,2.53
2023-04-21T12:07:41.657Z,2.53
2023-04-21T12:10:11.745Z,1.83
2023-04-21T12:12:39.871Z,1.87
2023-04-21T12:15:08.242Z,1.63
2023-04-21T12:17:46.155Z,3.63
2023-04-21T12:20:16.291Z,1.77
2023-04-21T12:22:43.184Z,1.67
2023-04-21T12:25:09.916Z,1.43
2023-04-21T12:27:36.538Z,2.63
2023-04-21T12:30:04.049Z,2.67
2023-04-21T12:32:31.689Z,1.30
2023-04-21T12:34:58.395Z,1.73
2023-04-21T12:37:25.845Z,1.80
2023-04-21T12:39:52.510Z,2.07
2023-04-21T12:42:19.102Z,2.33
2023-04-21T12:44:45.897Z,2.47
2023-04-21T12:47:12.576Z,2.63
2023-04-21T12:49:39.325Z,1.13
2023-04-21T12:52:06.246Z,1.53
2023-04-21T12:54:33.831Z,1.70
2023-04-21T12:57:00.569Z,2.87
2023-04-21T12:59:27.315Z,3.00
2023-04-21T13:01:54.065Z,2.03
2023-04-21T13:04:21.761Z,1.27
2023-04-21T13:06:48.736Z,1.67
2023-04-21T13:09:15.793Z,2.33
2023-04-21T13:11:42.471Z,2.20
2023-04-21T13:14:09.087Z,1.27
2023-04-21T13:16:35.906Z,1.93
2023-04-21T13:19:02.605Z,1.17
2023-04-21T13:21:29.193Z,1.63
2023-04-21T13:23:57.301Z,1.23
2023-04-21T13:26:24.378Z,1.30
2023-04-21T13:28:51.495Z,1.70
2023-04-21T13:31:18.513Z,1.20
2023-04-21T13:33:45.378Z,1.13
2023-04-21T13:36:13.214Z,1.20
2023-04-21T13:38:40.670Z,0.90
2023-04-21T13:41:07.909Z,1.43
2023-04-21T13:43:34.980Z,2.40
2023-04-21T13:46:01.898Z,1.13
2023-04-21T13:48:29.731Z,1.90
2023-04-21T13:50:56.455Z,1.33
2023-04-21T13:53:23.184Z,1.23
2023-04-21T13:55:49.911Z,2.30
2023-04-21T13:58:17.107Z,1.87
2023-04-21T14:00:43.992Z,0.90
2023-04-21T14:03:11.617Z,0.90
2023-04-21T14:05:39.064Z,1.37
2023-04-21T14:08:06.158Z,1.40
2023-04-21T14:10:33.079Z,1.10
2023-04-21T14:13:00.256Z,1.63
2023-04-21T14:15:27.024Z,1.43
2023-04-21T14:17:53.994Z,0.70
2023-04-21T14:20:20.834Z,1.83
2023-04-21T14:22:47.661Z,1.50
2023-04-21T14:25:14.516Z,1.13
2023-04-21T14:27:41.335Z,2.33
2023-04-21T14:30:08.764Z,1.40
2023-04-21T14:32:35.748Z,0.80
2023-04-21T14:35:03.866Z,2.67
2023-04-21T14:37:30.765Z,1.40
2023-04-21T14:39:57.649Z,1.90
2023-04-21T14:42:27.243Z,1.40
2023-04-21T14:44:54.012Z,0.83
2023-04-21T14:47:21.796Z,1.00
2023-04-21T14:49:54.562Z,3.23
2023-04-21T14:52:24.508Z,1.00
2023-04-21T14:54:51.351Z,1.40
2023-04-21T14:57:21.133Z,1.30
2023-04-21T14:59:50.488Z,1.10
2023-04-21T15:02:17.494Z,1.00
2023-04-21T15:04:44.434Z,2.23
2023-04-21T15:07:11.401Z,2.63
2023-04-21T15:09:39.048Z,1.50
2023-04-21T15:12:06.176Z,2.40
2023-04-21T15:14:32.981Z,3.13
2023-04-21T15:16:59.768Z,2.23
2023-04-21T15:19:26.811Z,1.30
2023-04-21T15:21:53.561Z,2.07
2023-04-21T15:24:20.250Z,1.27
2023-04-21T15:26:46.956Z,2.13
2023-04-21T15:29:13.572Z,1.90
2023-04-21T15:31:40.637Z,2.83
2023-04-21T15:34:07.743Z,4.03
2023-04-21T15:36:34.473Z,2.77
2023-04-21T15:39:01.223Z,2.87
2023-04-21T15:41:29.454Z,2.70
2023-04-21T15:43:56.459Z,2.23
2023-04-21T15:46:23.318Z,3.13
2023-04-21T15:48:50.196Z,2.77
2023-04-21T15:51:18.858Z,3.00
2023-04-21T15:53:48.921Z,2.47
2023-04-21T15:56:16.736Z,2.37
2023-04-21T15:58:44.111Z,2.33
2023-04-21T16:01:11.126Z,2.10
2023-04-21T16:03:40.173Z,2.00
2023-04-21T16:06:07.722Z,1.80
2023-04-21T16:08:34.552Z,2.27
2023-04-21T16:11:01.454Z,2.33
2023-04-21T16:13:31.311Z,4.57
2023-04-21T16:15:58.047Z,2.43
2023-04-21T16:18:25.575Z,2.60
2023-04-21T16:20:52.702Z,2.53
2023-04-21T16:23:19.514Z,2.10
2023-04-21T16:25:46.188Z,3.40
2023-04-21T16:28:12.984Z,2.73
2023-04-21T16:30:43.226Z,4.63
2023-04-21T16:33:11.224Z,3.93
2023-04-21T16:35:38.827Z,3.87
2023-04-21T16:38:06.068Z,3.90
2023-04-21T16:40:33.011Z,4.97
2023-04-21T16:42:59.783Z,3.97
2023-04-21T16:45:28.004Z,3.90
2023-04-21T16:47:54.879Z,2.53
2023-04-21T16:50:21.833Z,3.23
2023-04-21T16:52:48.545Z,4.50
2023-04-21T16:55:15.205Z,4.90
2023-04-21T16:57:42.005Z,3.30
2023-04-21T17:00:09.406Z,3.73
2023-04-21T17:02:36.269Z,4.83
2023-04-21T17:05:04.019Z,2.90
2023-04-21T17:07:32.056Z,3.43
2023-04-21T17:09:58.927Z,3.37
2023-04-21T17:12:25.808Z,3.80
2023-04-21T17:14:52.499Z,2.40
2023-04-21T17:17:19.136Z,2.07
2023-04-21T17:19:45.842Z,1.90
2023-04-21T17:22:12.519Z,3.83
2023-04-21T17:24:51.903Z,3.33
2023-04-21T17:27:19.764Z,2.93
2023-04-21T17:29:47.028Z,3.30
2023-04-21T17:32:14.248Z,2.27
2023-04-21T17:34:41.009Z,2.63
2023-04-21T17:37:07.844Z,2.77
2023-04-21T17:39:34.549Z,2.57
2023-04-21T17:42:02.808Z,3.87
2023-04-21T17:44:29.985Z,4.03
2023-04-21T17:46:58.156Z,2.93
2023-04-21T17:49:25.352Z,2.30
2023-04-21T17:51:52.374Z,2.67
2023-04-21T17:54:19.114Z,2.13
2023-04-21T17:56:46.293Z,2.23
2023-04-21T17:59:13.876Z,2.50
2023-04-21T18:01:40.711Z,2.27
2023-04-21T18:04:07.897Z,2.40
2023-04-21T18:06:36.924Z,2.50
2023-04-21T18:09:07.190Z,1.80
2023-04-21T18:11:33.927Z,2.37
2023-04-21T18:14:00.538Z,2.47
2023-04-21T18:16:27.376Z,2.87
2023-04-21T18:18:54.022Z,3.00
2023-04-21T18:21:21.248Z,3.27
2023-04-21T18:23:48.104Z,4.00
2023-04-21T18:26:14.759Z,3.03
2023-04-21T18:28:41.557Z,2.30
2023-04-21T18:31:08.892Z,2.60
2023-04-21T18:33:35.804Z,4.23
2023-04-21T18:36:02.666Z,2.87
2023-04-21T18:38:29.390Z,3.57
2023-04-21T18:40:56.304Z,2.83
2023-04-21T18:43:22.992Z,3.53
2023-04-21T18:45:49.659Z,3.90
2023-04-21T18:48:16.321Z,3.37
2023-04-21T18:50:43.012Z,2.83
2023-04-21T18:53:09.722Z,2.87
2023-04-21T18:55:37.452Z,2.23
2023-04-21T18:58:04.320Z,2.80
2023-04-21T19:00:32.061Z,2.40
2023-04-21T19:03:02.845Z,2.43
2023-04-21T19:05:31.513Z,2.60
2023-04-21T19:07:58.794Z,2.07
2023-04-21T19:10:26.760Z,2.73
2023-04-21T19:12:54.072Z,2.77
2023-04-21T19:15:22.202Z,3.80
2023-04-21T19:17:48.962Z,3.30
2023-04-21T19:20:15.672Z,4.43
2023-04-21T19:22:42.372Z,3.47
2023-04-21T19:25:09.569Z,4.20
2023-04-21T19:27:36.635Z,5.10
2023-04-21T19:30:03.664Z,5.90
2023-04-21T19:32:31.392Z,3.90
2023-04-21T19:34:58.023Z,3.93
2023-04-21T19:37:26.322Z,4.77
2023-04-21T19:39:53.117Z,5.53
2023-04-21T19:42:19.748Z,5.20
2023-04-21T19:44:46.430Z,5.17
2023-04-21T19:47:13.151Z,5.07
2023-04-21T19:49:40.181Z,6.43
2023-04-21T19:52:07.019Z,4.27
2023-04-21T19:54:33.727Z,7.07
2023-04-21T19:57:01.593Z,5.87
2023-04-21T19:59:28.294Z,7.83
2023-04-21T20:01:54.995Z,7.37
2023-04-21T20:04:21.915Z,5.70
2023-04-21T20:06:48.852Z,6.77
2023-04-21T20:09:16.075Z,4.70
2023-04-21T20:11:43.285Z,5.63
2023-04-21T20:14:10.735Z,7.77
2023-04-21T20:16:37.704Z,6.87
2023-04-21T20:19:04.875Z,11.80
2023-04-21T20:21:33.230Z,6.73
2023-04-21T20:23:59.884Z,5.47
2023-04-21T20:26:26.626Z,4.77
2023-04-21T20:28:53.302Z,4.80
2023-04-21T20:31:23.531Z,5.10
2023-04-21T20:33:50.470Z,5.53
2023-04-21T20:36:17.700Z,5.83
2023-04-21T20:38:46.330Z,8.50
2023-04-21T20:41:13.429Z,5.00
2023-04-21T20:43:40.322Z,4.37
2023-04-21T20:46:08.734Z,4.83
2023-04-21T20:48:35.482Z,4.77
2023-04-21T20:51:02.626Z,4.20
2023-04-21T20:53:29.307Z,5.37
2023-04-21T20:55:56.056Z,4.50
2023-04-21T20:58:24.386Z,3.97
2023-04-21T21:00:51.264Z,3.80
2023-04-21T21:03:20.285Z,3.73
2023-04-21T21:05:47.576Z,3.87
2023-04-21T21:08:15.196Z,4.70
2023-04-21T21:10:42.114Z,4.13
2023-04-21T21:13:08.808Z,4.20
2023-04-21T21:15:35.488Z,3.20
2023-04-21T21:18:02.523Z,3.00
2023-04-21T21:20:29.201Z,3.97
2023-04-21T21:22:55.871Z,3.87
2023-04-21T21:25:22.504Z,4.40
2023-04-21T21:27:49.240Z,2.87
2023-04-21T21:30:16.014Z,3.10
2023-04-21T21:32:42.753Z,2.73
2023-04-21T21:35:10.328Z,4.37
2023-04-21T21:37:37.568Z,4.07
2023-04-21T21:40:04.715Z,2.80
2023-04-21T21:42:31.544Z,3.10
2023-04-21T21:44:58.265Z,2.27
2023-04-21T21:47:25.067Z,3.33
2023-04-21T21:49:54.870Z,2.60
2023-04-21T21:52:21.988Z,3.00
2023-04-21T21:54:48.613Z,3.27
2023-04-21T21:57:15.781Z,2.70
2023-04-21T21:59:42.470Z,2.63
2023-04-21T22:02:09.157Z,3.17
2023-04-21T22:04:35.968Z,2.50
2023-04-21T22:07:03.910Z,2.57
2023-04-21T22:09:30.819Z,3.50
2023-04-21T22:11:57.485Z,3.23
2023-04-21T22:14:24.388Z,3.63
2023-04-21T22:16:52.568Z,3.13
2023-04-21T22:19:19.614Z,2.80
2023-04-21T22:21:46.367Z,3.90
2023-04-21T22:24:13.146Z,3.03
2023-04-21T22:26:39.938Z,3.17
2023-04-21T22:29:06.948Z,3.07
2023-04-21T22:31:34.066Z,3.23
2023-04-21T22:34:00.818Z,3.33
2023-04-21T22:36:27.665Z,2.43
2023-04-21T22:38:54.420Z,2.80
2023-04-21T22:41:21.174Z,3.87
2023-04-21T22:43:48.011Z,3.10
2023-04-21T22:46:15.184Z,3.87
2023-04-21T22:48:41.953Z,2.70
2023-04-21T22:51:08.553Z,2.50
2023-04-21T22:53:35.486Z,3.43
2023-04-21T22:56:02.390Z,3.97
2023-04-21T22:58:29.171Z,2.60
2023-04-21T23:00:55.914Z,3.10
2023-04-21T23:03:23.460Z,3.20
2023-04-21T23:05:50.485Z,6.13
2023-04-21T23:08:17.150Z,3.07
2023-04-21T23:10:43.818Z,2.77
2023-04-21T23:13:10.695Z,2.60
2023-04-21T23:15:37.381Z,2.87
2023-04-21T23:18:04.349Z,5.90
2023-04-21T23:20:31.631Z,3.27
2023-04-21T23:22:58.679Z,3.00
2023-04-21T23:25:25.452Z,3.83
2023-04-21T23:27:52.230Z,2.80
2023-04-21T23:30:19.315Z,3.37
2023-04-21T23:32:46.646Z,4.23
2023-04-21T23:35:13.612Z,2.67
2023-04-21T23:37:40.458Z,2.63
2023-04-21T23:40:10.986Z,3.17
2023-04-21T23:42:38.736Z,3.70
2023-04-21T23:45:06.442Z,2.47
2023-04-21T23:47:33.825Z,3.07
2023-04-21T23:50:00.798Z,2.47
2023-04-21T23:52:27.601Z,3.73
2023-04-21T23:54:54.265Z,3.60
2023-04-21T23:57:21.266Z,2.37
2023-04-21T23:59:48.010Z,2.80
